Pederneiras, Brazil
Current Conditions -  °F | °C
As of 2:00 PM on Monday 20 Oct 2014 (Local Time) from SBIH Reporting Station
Few Clouds Few Clouds  
Wind Chill: 95°   Ceiling: Unl
Heat Index: 107°   Visibility: 6mi
Dew Point: 75°   Wind: 2mph
Humidity: 53%   Direction: 120°ESE
Pressure: 29.77"   Gusts: NA
Location:  4.22°S, 55.85°W
Report Text: SBIH 201800Z 12002KT 9999 FEW020 35/24 Q1008
Loading
Personal Weather Stations






























Interactive Weather Map
Tropical Storm Tracking
New forecast layout! Learn more

10-Day Weather Forecast

Advertisements
Track Severe Weather on mobile